createdAt,value
2019-06-26T00:01:31.443Z,74.81
2019-06-26T00:04:00.742Z,74.95
2019-06-26T00:06:30.217Z,75.27
2019-06-26T00:08:59.546Z,75.58
2019-06-26T00:11:28.793Z,75.75
2019-06-26T00:13:58.067Z,76.03
2019-06-26T00:16:27.398Z,76.50
2019-06-26T00:18:56.674Z,76.83
2019-06-26T00:21:25.972Z,77.21
2019-06-26T00:23:55.289Z,77.39
2019-06-26T00:26:24.576Z,77.50
2019-06-26T00:28:53.854Z,77.75
2019-06-26T00:31:42.184Z,78.03
2019-06-26T00:34:11.465Z,78.24
2019-06-26T00:36:40.743Z,78.59
2019-06-26T00:39:10.012Z,78.92
2019-06-26T00:41:39.359Z,79.11
2019-06-26T00:44:08.633Z,79.36
2019-06-26T00:46:37.913Z,79.49
2019-06-26T00:49:07.248Z,79.66
2019-06-26T00:51:36.563Z,79.74
2019-06-26T00:54:05.869Z,79.83
2019-06-26T00:59:23.457Z,80.29
2019-06-26T01:01:52.757Z,80.44
2019-06-26T01:04:26.734Z,80.40
2019-06-26T01:06:56.019Z,80.50
2019-06-26T01:09:25.453Z,80.56
2019-06-26T01:11:54.678Z,80.45
2019-06-26T01:14:24.026Z,80.40
2019-06-26T01:16:53.392Z,80.51
2019-06-26T01:19:22.710Z,80.60
2019-06-26T01:21:52.003Z,80.73
2019-06-26T01:24:21.322Z,80.84
2019-06-26T01:26:50.669Z,80.89
2019-06-26T01:29:19.930Z,80.99
2019-06-26T01:31:49.281Z,81.16
2019-06-26T01:34:18.572Z,81.25
2019-06-26T01:36:47.891Z,81.52
2019-06-26T01:39:17.175Z,81.74
2019-06-26T01:41:46.531Z,82.00
2019-06-26T01:44:15.901Z,82.32
2019-06-26T01:46:45.169Z,82.26
2019-06-26T01:49:14.444Z,82.78
2019-06-26T01:51:43.755Z,82.67
2019-06-26T01:54:13.043Z,82.82
2019-06-26T01:56:42.317Z,83.04
2019-06-26T01:59:11.593Z,83.08
2019-06-26T02:01:40.867Z,83.37
2019-06-26T02:04:10.266Z,83.58
2019-06-26T02:06:39.554Z,83.76
2019-06-26T02:09:08.843Z,83.84
2019-06-26T02:11:38.097Z,83.98
2019-06-26T02:14:07.386Z,84.09
2019-06-26T02:16:36.668Z,84.35
2019-06-26T02:21:42.088Z,84.88
2019-06-26T02:24:11.358Z,85.08
2019-06-26T02:26:40.622Z,85.00
2019-06-26T02:29:09.933Z,85.08
2019-06-26T02:34:27.527Z,85.43
2019-06-26T02:36:56.794Z,85.51
2019-06-26T02:39:26.061Z,85.52
2019-06-26T02:41:55.355Z,85.82
2019-06-26T02:44:24.630Z,86.03
2019-06-26T02:46:53.894Z,86.07
2019-06-26T02:49:23.210Z,86.14
2019-06-26T02:51:52.491Z,86.25
2019-06-26T02:54:21.824Z,86.46
2019-06-26T02:56:51.127Z,86.52
2019-06-26T02:59:20.405Z,86.73
2019-06-26T03:01:49.709Z,86.77
2019-06-26T03:04:19.034Z,86.74
2019-06-26T03:06:48.320Z,86.67
2019-06-26T03:09:17.593Z,86.64
2019-06-26T03:11:46.893Z,86.70
2019-06-26T03:14:16.160Z,86.74
2019-06-26T03:16:45.496Z,86.81
2019-06-26T03:19:14.773Z,86.76
2019-06-26T03:21:44.040Z,86.76
2019-06-26T03:24:13.300Z,86.81
2019-06-26T03:26:42.572Z,87.00
2019-06-26T03:29:11.862Z,87.09
2019-06-26T03:31:41.158Z,86.92
2019-06-26T03:34:29.482Z,86.82
2019-06-26T03:36:58.754Z,86.72
2019-06-26T03:39:28.015Z,86.82
2019-06-26T03:44:32.433Z,86.49
2019-06-26T03:47:01.719Z,86.40
2019-06-26T03:49:49.892Z,86.27
2019-06-26T03:52:19.213Z,86.17
2019-06-26T03:54:48.666Z,86.02
2019-06-26T03:57:17.939Z,85.91
2019-06-26T03:59:47.276Z,85.85
2019-06-26T04:02:16.546Z,85.95
2019-06-26T04:04:45.816Z,85.96
2019-06-26T04:07:33.982Z,85.96
2019-06-26T04:12:37.953Z,86.06
2019-06-26T04:18:02.030Z,85.58
2019-06-26T04:23:05.627Z,85.24
2019-06-26T04:25:37.266Z,85.41
2019-06-26T04:28:06.521Z,84.84
2019-06-26T04:30:36.941Z,84.55
2019-06-26T04:33:06.251Z,84.53
2019-06-26T04:35:35.541Z,84.20
2019-06-26T04:38:04.817Z,83.89
2019-06-26T04:40:34.084Z,83.76
2019-06-26T04:43:03.358Z,83.31
2019-06-26T04:45:32.636Z,83.09
2019-06-26T04:48:02.029Z,82.92
2019-06-26T04:53:05.694Z,82.39
2019-06-26T04:55:34.977Z,81.93
2019-06-26T04:58:04.250Z,81.74
2019-06-26T05:00:33.530Z,81.51
2019-06-26T05:03:02.814Z,81.30
2019-06-26T05:05:39.743Z,81.02
2019-06-26T05:08:03.108Z,80.89
2019-06-26T05:10:32.368Z,80.40
2019-06-26T05:13:01.649Z,80.17
2019-06-26T05:15:30.975Z,79.86
2019-06-26T05:18:00.291Z,79.68
2019-06-26T05:20:29.619Z,79.39
2019-06-26T05:22:58.926Z,79.25
2019-06-26T05:25:28.182Z,79.04
2019-06-26T05:27:57.533Z,78.97
2019-06-26T05:30:26.766Z,78.96
2019-06-26T05:32:56.042Z,78.56
2019-06-26T05:35:25.354Z,78.28
2019-06-26T05:37:54.616Z,77.97
2019-06-26T05:40:23.986Z,77.79
2019-06-26T05:45:28.392Z,77.59
2019-06-26T05:50:32.396Z,77.41
2019-06-26T05:53:01.798Z,77.55
2019-06-26T05:55:31.074Z,77.41
2019-06-26T05:58:00.345Z,77.62
2019-06-26T06:00:29.633Z,77.58
2019-06-26T06:02:58.980Z,77.55
2019-06-26T06:05:28.868Z,77.39
2019-06-26T06:07:58.171Z,77.13
2019-06-26T06:10:27.482Z,77.05
2019-06-26T06:12:56.750Z,76.86
2019-06-26T06:15:26.027Z,76.88
2019-06-26T06:20:43.618Z,76.67
2019-06-26T06:23:13.446Z,76.54
2019-06-26T06:25:42.721Z,76.40
2019-06-26T06:28:12.011Z,76.36
2019-06-26T06:30:41.313Z,76.32
2019-06-26T06:33:10.586Z,76.08
2019-06-26T06:35:39.890Z,76.03
2019-06-26T06:38:09.182Z,75.54
2019-06-26T06:40:38.470Z,75.22
2019-06-26T06:43:07.740Z,75.09
2019-06-26T06:45:37.012Z,74.59
2019-06-26T06:48:06.453Z,73.96
2019-06-26T06:50:35.736Z,73.86
2019-06-26T06:53:05.010Z,73.65
2019-06-26T06:55:34.350Z,73.12
2019-06-26T06:58:03.634Z,73.19
2019-06-26T07:00:32.935Z,72.70
2019-06-26T07:03:02.375Z,72.57
2019-06-26T07:05:31.647Z,72.11
2019-06-26T07:08:00.990Z,71.91
2019-06-26T07:10:30.283Z,71.81
2019-06-26T07:12:59.582Z,71.56
2019-06-26T07:15:28.914Z,71.16
2019-06-26T07:17:58.203Z,70.82
2019-06-26T07:20:39.633Z,70.92
2019-06-26T07:23:08.889Z,70.88
2019-06-26T07:25:38.209Z,70.57
2019-06-26T07:28:07.812Z,70.40
2019-06-26T07:30:37.042Z,70.33
2019-06-26T07:33:06.311Z,70.16
2019-06-26T07:35:54.664Z,70.00
2019-06-26T07:38:24.031Z,70.00
2019-06-26T07:40:53.434Z,69.96
2019-06-26T07:43:22.728Z,69.79
2019-06-26T07:45:52.030Z,69.82
2019-06-26T07:48:23.423Z,69.50
2019-06-26T07:50:52.702Z,69.34
2019-06-26T07:53:22.088Z,69.31
2019-06-26T07:55:51.363Z,69.28
2019-06-26T07:58:39.544Z,69.27
2019-06-26T08:01:08.945Z,69.04
2019-06-26T08:03:40.517Z,68.80
2019-06-26T08:06:28.856Z,68.86
2019-06-26T08:08:58.166Z,68.68
2019-06-26T08:11:27.464Z,68.61
2019-06-26T08:13:56.770Z,68.55
2019-06-26T08:16:26.076Z,68.30
2019-06-26T08:21:55.487Z,67.87
2019-06-26T08:24:24.771Z,67.77
2019-06-26T08:26:54.124Z,67.87
2019-06-26T08:29:23.434Z,67.73
2019-06-26T08:31:52.703Z,67.78
2019-06-26T08:34:21.996Z,67.62
2019-06-26T08:36:51.270Z,67.54
2019-06-26T08:39:39.473Z,67.30
2019-06-26T08:42:08.814Z,67.04
2019-06-26T08:44:38.075Z,66.93
2019-06-26T08:47:07.354Z,66.83
2019-06-26T08:49:36.635Z,66.75
2019-06-26T12:28:21.474Z,57.70
2019-06-26T12:30:50.767Z,58.41
2019-06-26T12:33:20.063Z,55.33
2019-06-26T12:35:49.389Z,57.95
2019-06-26T12:38:18.644Z,55.60
2019-06-26T12:40:48.655Z,55.63
2019-06-26T12:43:17.918Z,57.42
2019-06-26T12:45:47.199Z,55.06
2019-06-26T12:48:16.618Z,57.37
2019-06-26T12:50:45.837Z,57.84
2019-06-26T12:53:15.135Z,57.25
2019-06-26T12:55:44.412Z,57.55
2019-06-26T12:58:19.814Z,57.27
2019-06-26T13:00:46.562Z,55.84
2019-06-26T13:03:15.851Z,56.15
2019-06-26T13:05:45.103Z,57.72
2019-06-26T13:08:14.368Z,57.13
2019-06-26T13:10:49.807Z,57.58
2019-06-26T13:13:14.738Z,58.18
2019-06-26T13:15:44.009Z,57.82
2019-06-26T13:18:13.296Z,57.63
2019-06-26T13:20:52.697Z,57.30
2019-06-26T13:23:14.905Z,56.86
2019-06-26T13:25:44.406Z,57.30
2019-06-26T13:28:13.689Z,57.27
2019-06-26T13:30:43.052Z,56.85
2019-06-26T13:33:12.314Z,56.51
2019-06-26T13:35:41.665Z,56.65
2019-06-26T13:38:10.926Z,56.54
2019-06-26T13:40:41.212Z,56.39
2019-06-26T13:43:10.633Z,55.64
2019-06-26T13:45:39.900Z,53.59
2019-06-26T13:48:09.185Z,55.23
2019-06-26T13:50:38.497Z,55.08
2019-06-26T13:53:07.781Z,55.53
2019-06-26T13:55:37.049Z,54.03
2019-06-26T13:58:06.359Z,54.94
2019-06-26T14:00:35.654Z,54.66
2019-06-26T14:03:04.913Z,55.09
2019-06-26T14:05:34.227Z,55.54
2019-06-26T14:08:03.493Z,55.11
2019-06-26T14:10:32.816Z,55.04
2019-06-26T14:13:02.114Z,54.96
2019-06-26T14:15:31.376Z,55.38
2019-06-26T14:18:00.696Z,55.64
2019-06-26T14:20:30.027Z,55.82
2019-06-26T14:22:59.309Z,56.13
2019-06-26T14:25:28.599Z,56.92
2019-06-26T14:27:57.875Z,57.73
2019-06-26T14:30:28.074Z,58.14
2019-06-26T14:32:57.566Z,58.98
2019-06-26T14:35:26.904Z,59.25
2019-06-26T14:37:56.213Z,58.98
2019-06-26T14:40:25.491Z,59.16
2019-06-26T14:42:54.782Z,59.32
2019-06-26T14:45:25.625Z,60.79
2019-06-26T14:47:54.886Z,61.59
2019-06-26T14:50:24.169Z,61.54
2019-06-26T14:52:53.429Z,62.03
2019-06-26T14:55:22.704Z,62.76
2019-06-26T14:57:51.961Z,61.63
2019-06-26T15:00:21.870Z,62.77
2019-06-26T15:02:51.134Z,63.80
2019-06-26T15:05:20.419Z,63.49
2019-06-26T15:07:50.309Z,64.58
2019-06-26T15:10:19.747Z,63.94
2019-06-26T15:12:49.025Z,64.66
2019-06-26T15:15:18.392Z,64.65
2019-06-26T15:17:47.759Z,64.55
2019-06-26T15:20:18.500Z,65.48
2019-06-26T15:22:47.765Z,65.74
2019-06-26T15:25:18.446Z,67.60
2019-06-26T15:27:48.624Z,66.45
2019-06-26T15:30:17.994Z,68.11
2019-06-26T15:32:47.264Z,66.65
2019-06-26T15:35:16.655Z,68.09
2019-06-26T15:37:45.917Z,68.02
2019-06-26T15:40:15.213Z,70.01
2019-06-26T15:42:44.483Z,68.13
2019-06-26T15:45:14.119Z,67.85
2019-06-26T15:47:43.443Z,68.05
2019-06-26T15:50:12.904Z,68.53
2019-06-26T15:52:42.184Z,71.06
2019-06-26T15:55:12.284Z,71.23
2019-06-26T15:57:41.684Z,70.16
2019-06-26T16:00:11.431Z,70.75
2019-06-26T16:02:40.744Z,71.90
2019-06-26T16:05:10.035Z,73.14
2019-06-26T16:07:39.321Z,70.22
2019-06-26T16:10:09.675Z,70.44
2019-06-26T16:12:38.998Z,70.67
2019-06-26T16:15:08.675Z,71.30
2019-06-26T16:18:06.079Z,70.68
2019-06-26T16:20:35.532Z,71.62
2019-06-26T16:23:04.815Z,71.05
2019-06-26T16:25:34.201Z,70.09
2019-06-26T16:28:05.881Z,71.37
2019-06-26T16:30:34.508Z,70.42
2019-06-26T16:33:03.856Z,70.93
2019-06-26T16:35:33.247Z,70.53
2019-06-26T16:38:02.585Z,70.83
2019-06-26T16:40:31.882Z,70.67
2019-06-26T16:43:01.236Z,70.86
2019-06-26T16:45:30.563Z,70.66
2019-06-26T16:48:23.323Z,71.01
2019-06-26T16:50:59.235Z,71.94
2019-06-26T16:53:28.541Z,71.99
2019-06-26T16:55:57.809Z,73.57
2019-06-26T16:58:27.097Z,72.23
2019-06-26T17:00:56.404Z,71.83
2019-06-26T17:03:25.701Z,72.62
2019-06-26T17:05:57.769Z,71.74
2019-06-26T17:08:27.061Z,71.78
2019-06-26T17:10:56.428Z,73.85
2019-06-26T17:13:25.703Z,73.17
2019-06-26T17:15:55.000Z,72.92
2019-06-26T17:18:24.344Z,72.72
2019-06-26T17:20:53.606Z,72.59
2019-06-26T17:23:22.949Z,72.37
2019-06-26T17:25:52.207Z,72.06
2019-06-26T17:28:21.520Z,71.89
2019-06-26T17:30:52.957Z,72.39
2019-06-26T17:33:21.915Z,72.28
2019-06-26T17:35:51.238Z,72.78
2019-06-26T17:38:20.611Z,72.80
2019-06-26T17:40:49.891Z,72.85
2019-06-26T17:43:19.303Z,72.77
2019-06-26T17:45:48.603Z,72.55
2019-06-26T17:48:17.996Z,72.49
2019-06-26T17:50:47.338Z,72.24
2019-06-26T17:53:21.453Z,71.73
2019-06-26T17:55:47.678Z,71.40
2019-06-26T17:58:17.073Z,71.90
2019-06-26T18:00:46.423Z,72.23
2019-06-26T18:03:16.114Z,72.72
2019-06-26T18:05:45.394Z,73.59
2019-06-26T18:08:14.743Z,73.42
2019-06-26T18:10:44.090Z,73.60
2019-06-26T18:13:13.360Z,74.47
2019-06-26T18:15:42.657Z,74.56
2019-06-26T18:18:12.085Z,75.83
2019-06-26T18:20:41.369Z,73.90
2019-06-26T18:23:10.705Z,74.24
2019-06-26T18:25:40.058Z,74.48
2019-06-26T18:28:09.339Z,76.41
2019-06-26T18:30:38.633Z,74.60
2019-06-26T18:33:07.987Z,75.20
2019-06-26T18:35:37.360Z,75.61
2019-06-26T18:38:06.669Z,76.45
2019-06-26T18:40:36.005Z,75.95
2019-06-26T18:43:05.310Z,76.24
2019-06-26T18:45:34.607Z,76.75
2019-06-26T18:48:04.057Z,76.99
2019-06-26T18:50:41.131Z,77.31
2019-06-26T18:53:10.572Z,77.59
2019-06-26T18:55:39.963Z,78.38
2019-06-26T18:58:11.754Z,80.30
2019-06-26T19:00:41.098Z,79.06
2019-06-26T19:03:10.404Z,79.29
2019-06-26T19:05:39.739Z,79.77
2019-06-26T19:08:09.045Z,80.32
2019-06-26T19:10:38.336Z,80.22
2019-06-26T19:13:07.610Z,80.43
2019-06-26T19:15:38.165Z,80.46
2019-06-26T19:18:07.451Z,80.42
2019-06-26T19:20:36.722Z,80.58
2019-06-26T19:23:06.030Z,82.81
2019-06-26T19:25:35.419Z,81.56
2019-06-26T19:28:04.710Z,81.61
2019-06-26T19:30:34.003Z,81.58
2019-06-26T19:33:03.371Z,81.85
2019-06-26T19:35:32.684Z,82.08
2019-06-26T19:38:01.982Z,82.46
2019-06-26T19:40:31.385Z,83.18
2019-06-26T19:43:00.660Z,83.89
2019-06-26T19:45:30.063Z,84.40
2019-06-26T19:47:59.351Z,84.81
2019-06-26T19:50:28.651Z,84.66
2019-06-26T19:52:57.937Z,85.16
2019-06-26T19:55:27.218Z,85.30
2019-06-26T19:57:56.494Z,85.37
2019-06-26T20:00:25.763Z,85.27
2019-06-26T20:02:55.054Z,89.26
2019-06-26T20:05:24.506Z,86.61
2019-06-26T20:07:53.784Z,86.66
2019-06-26T20:10:23.262Z,86.67
2019-06-26T20:12:52.570Z,86.65
2019-06-26T20:15:21.887Z,86.96
2019-06-26T20:17:51.169Z,87.57
2019-06-26T20:20:20.459Z,87.62
2019-06-26T20:22:49.748Z,87.98
2019-06-26T20:25:19.548Z,88.53
2019-06-26T20:27:48.842Z,89.12
2019-06-26T20:30:21.102Z,88.89
2019-06-26T20:32:50.383Z,88.51
2019-06-26T20:35:19.680Z,88.78
2019-06-26T20:37:48.997Z,89.75
2019-06-26T20:40:18.268Z,88.93
2019-06-26T20:42:47.530Z,88.82
2019-06-26T20:45:16.989Z,88.89
2019-06-26T20:47:46.281Z,89.50
2019-06-26T20:50:15.678Z,90.30
2019-06-26T20:52:44.975Z,89.85
2019-06-26T20:55:14.236Z,89.70
2019-06-26T20:57:43.556Z,90.19
2019-06-26T21:00:13.111Z,89.67
2019-06-26T21:02:42.426Z,89.82
2019-06-26T21:05:12.803Z,90.10
2019-06-26T21:07:42.118Z,89.60
2019-06-26T21:10:11.487Z,90.33
2019-06-26T21:12:40.791Z,89.83
2019-06-26T21:15:10.985Z,90.18
2019-06-26T21:17:40.252Z,90.10
2019-06-26T21:20:09.646Z,90.57
2019-06-26T21:22:38.910Z,90.65
2019-06-26T21:25:18.322Z,92.38
2019-06-26T21:27:39.763Z,91.48
2019-06-26T21:30:10.554Z,91.42
2019-06-26T21:32:39.838Z,92.03
2019-06-26T21:35:09.117Z,91.61
2019-06-26T21:37:38.405Z,91.55
2019-06-26T21:40:08.275Z,92.50
2019-06-26T21:42:37.569Z,92.16
2019-06-26T21:45:07.127Z,92.48
2019-06-26T21:47:36.523Z,93.28
2019-06-26T21:50:05.992Z,92.60
2019-06-26T21:52:35.350Z,92.91
2019-06-26T21:55:04.606Z,93.16
2019-06-26T21:57:33.876Z,93.42
2019-06-26T22:00:03.601Z,93.53
2019-06-26T22:02:33.154Z,93.55
2019-06-26T22:05:02.805Z,93.56
2019-06-26T22:07:32.512Z,93.59
2019-06-26T22:10:01.762Z,93.39
2019-06-26T22:12:31.087Z,93.75
2019-06-26T22:15:00.369Z,93.83
2019-06-26T22:17:29.653Z,94.13
2019-06-26T22:19:58.931Z,94.71
2019-06-26T22:22:28.196Z,94.32
2019-06-26T22:24:57.491Z,95.07
2019-06-26T22:27:26.764Z,94.39
2019-06-26T22:29:56.057Z,95.16
2019-06-26T22:32:25.329Z,95.05
2019-06-26T22:34:54.602Z,95.64
2019-06-26T22:37:24.046Z,94.85
2019-06-26T22:39:53.314Z,95.64
2019-06-26T22:42:22.595Z,95.28
2019-06-26T22:44:51.965Z,95.33
2019-06-26T22:47:21.352Z,97.94
2019-06-26T22:49:50.701Z,96.70
2019-06-26T22:52:19.936Z,96.25
2019-06-26T22:54:49.221Z,95.78
2019-06-26T22:57:18.552Z,96.23
2019-06-26T22:59:47.839Z,96.12
2019-06-26T23:02:17.125Z,97.08
2019-06-26T23:04:46.396Z,96.46
2019-06-26T23:07:15.666Z,96.46
2019-06-26T23:09:44.993Z,96.37
2019-06-26T23:12:14.281Z,96.26
2019-06-26T23:14:43.556Z,96.29
2019-06-26T23:17:12.864Z,96.51
2019-06-26T23:19:42.128Z,96.30
2019-06-26T23:22:11.414Z,96.29
2019-06-26T23:24:40.677Z,96.12
2019-06-26T23:27:09.968Z,96.22
2019-06-26T23:29:39.241Z,96.36
2019-06-26T23:32:08.515Z,96.44
2019-06-26T23:34:37.788Z,96.48
2019-06-26T23:37:07.073Z,96.25
2019-06-26T23:39:36.368Z,96.33
2019-06-26T23:42:05.729Z,96.45
2019-06-26T23:44:35.008Z,96.36
2019-06-26T23:47:04.280Z,96.47
2019-06-26T23:49:33.977Z,96.35
2019-06-26T23:52:03.278Z,96.44
2019-06-26T23:54:32.788Z,96.49
2019-06-26T23:57:02.055Z,96.48
2019-06-26T23:59:31.339Z,96.51
